createdAt,value
2024-02-29T00:00:27.826Z,100.00
2024-02-29T00:03:31.840Z,100.00
2024-02-29T00:06:35.767Z,100.00
2024-02-29T00:09:38.853Z,100.00
2024-02-29T00:12:41.775Z,100.00
2024-02-29T00:15:44.493Z,100.00
2024-02-29T00:18:49.572Z,100.00
2024-02-29T00:21:52.446Z,100.00
2024-02-29T00:24:55.180Z,100.00
2024-02-29T00:27:58.958Z,100.00
2024-02-29T00:31:01.729Z,100.00
2024-02-29T00:34:05.737Z,100.00
2024-02-29T00:37:08.476Z,100.00
2024-02-29T00:40:11.942Z,100.00
2024-02-29T00:43:14.683Z,100.00
2024-02-29T00:46:17.394Z,100.00
2024-02-29T00:49:21.397Z,100.00
2024-02-29T00:52:24.012Z,100.00
2024-02-29T00:55:26.702Z,100.00
2024-02-29T00:58:29.613Z,100.00
2024-02-29T01:01:32.328Z,100.00
2024-02-29T01:04:36.355Z,100.00
2024-02-29T01:07:41.631Z,100.00
2024-02-29T01:10:44.338Z,100.00
2024-02-29T01:13:47.046Z,100.00
2024-02-29T01:16:49.764Z,100.00
2024-02-29T01:19:53.794Z,100.00
2024-02-29T01:22:56.461Z,100.00
2024-02-29T01:25:59.111Z,100.00
2024-02-29T01:29:01.740Z,100.00
2024-02-29T01:32:12.354Z,100.00
2024-02-29T01:35:22.846Z,100.00
2024-02-29T01:38:25.487Z,100.00
2024-02-29T01:41:28.138Z,100.00
2024-02-29T01:44:30.945Z,100.00
2024-02-29T01:47:33.619Z,100.00
2024-02-29T01:50:39.232Z,100.00
2024-02-29T01:53:42.047Z,100.00
2024-02-29T01:56:44.853Z,100.00
2024-02-29T01:59:49.219Z,100.00
2024-02-29T02:02:52.418Z,100.00
2024-02-29T02:05:56.460Z,100.00
2024-02-29T02:08:59.345Z,100.00
2024-02-29T02:12:01.993Z,100.00
2024-02-29T02:15:04.874Z,100.00
2024-02-29T02:18:07.763Z,100.00
2024-02-29T02:21:11.929Z,100.00
2024-02-29T02:24:14.737Z,100.00
2024-02-29T02:27:17.372Z,100.00
2024-02-29T02:30:19.996Z,100.00
2024-02-29T02:33:22.930Z,100.00
2024-02-29T02:36:26.923Z,100.00
2024-02-29T02:39:29.657Z,100.00
2024-02-29T02:42:32.416Z,100.00
2024-02-29T02:45:35.088Z,100.00
2024-02-29T02:48:37.808Z,100.00
2024-02-29T02:51:41.828Z,100.00
2024-02-29T02:54:44.494Z,100.00
2024-02-29T02:57:47.180Z,100.00
2024-02-29T03:00:50.128Z,100.00
2024-02-29T03:03:53.421Z,100.00
2024-02-29T03:06:57.531Z,100.00
2024-02-29T03:10:00.511Z,100.00
2024-02-29T03:13:03.464Z,100.00
2024-02-29T03:16:06.456Z,100.00
2024-02-29T03:19:09.883Z,100.00
2024-02-29T03:22:14.657Z,100.00
2024-02-29T03:25:17.710Z,100.00
2024-02-29T03:28:20.389Z,100.00
2024-02-29T03:31:23.030Z,100.00
2024-02-29T03:34:25.741Z,100.00
2024-02-29T03:37:29.762Z,100.00
2024-02-29T03:40:32.443Z,100.00
2024-02-29T03:43:35.650Z,100.00
2024-02-29T03:46:38.478Z,100.00
2024-02-29T03:49:41.134Z,100.00
2024-02-29T03:52:45.162Z,100.00
2024-02-29T03:55:49.168Z,100.00
2024-02-29T03:58:53.318Z,100.00
2024-02-29T04:01:57.117Z,100.00
2024-02-29T04:04:59.795Z,100.00
2024-02-29T04:08:04.934Z,100.00
2024-02-29T04:11:07.989Z,100.00
2024-02-29T04:14:10.941Z,100.00
2024-02-29T04:17:13.677Z,100.00
2024-02-29T04:20:16.442Z,100.00
2024-02-29T04:23:20.422Z,100.00
2024-02-29T04:26:25.129Z,100.00
2024-02-29T04:29:27.773Z,100.00
2024-02-29T04:32:30.404Z,100.00
2024-02-29T04:35:33.054Z,100.00
2024-02-29T04:38:37.071Z,100.00
2024-02-29T04:41:39.705Z,100.00
2024-02-29T04:44:42.373Z,100.00
2024-02-29T04:47:45.079Z,100.00
2024-02-29T04:50:47.730Z,100.00
2024-02-29T04:53:51.704Z,100.00
2024-02-29T04:56:54.337Z,100.00
2024-02-29T04:59:58.028Z,100.00
2024-02-29T05:03:00.817Z,100.00
2024-02-29T05:06:04.582Z,100.00
2024-02-29T05:09:08.579Z,100.00
2024-02-29T05:12:11.195Z,100.00
2024-02-29T05:15:13.835Z,100.00
2024-02-29T05:18:16.542Z,100.00
2024-02-29T05:21:19.188Z,100.00
2024-02-29T05:24:23.207Z,100.00
2024-02-29T05:27:30.480Z,100.00
2024-02-29T05:30:33.394Z,100.00
2024-02-29T05:33:36.101Z,100.00
2024-02-29T05:36:38.781Z,100.00
2024-02-29T05:39:43.490Z,100.00
2024-02-29T05:42:46.201Z,100.00
2024-02-29T05:45:48.949Z,100.00
2024-02-29T05:48:51.638Z,100.00
2024-02-29T05:51:54.322Z,100.00
2024-02-29T05:54:58.678Z,100.00
2024-02-29T05:58:01.601Z,100.00
2024-02-29T06:01:04.654Z,100.00
2024-02-29T06:04:07.576Z,100.00
2024-02-29T06:07:10.321Z,100.00
2024-02-29T06:10:14.598Z,100.00
2024-02-29T06:13:17.791Z,100.00
2024-02-29T06:16:21.749Z,100.00
2024-02-29T06:19:24.539Z,100.00
2024-02-29T06:22:27.257Z,100.00
2024-02-29T06:25:31.277Z,100.00
2024-02-29T06:28:33.911Z,100.00
2024-02-29T06:31:36.564Z,100.00
2024-02-29T06:34:39.214Z,100.00
2024-02-29T06:37:43.559Z,100.00
2024-02-29T06:40:48.016Z,100.00
2024-02-29T06:43:50.674Z,100.00
2024-02-29T06:46:53.380Z,100.00
2024-02-29T06:49:56.009Z,100.00
2024-02-29T06:52:59.330Z,100.00
2024-02-29T06:56:05.102Z,100.00
2024-02-29T06:59:07.798Z,100.00
2024-02-29T07:02:10.464Z,100.00
2024-02-29T07:05:13.452Z,100.00
2024-02-29T07:08:16.105Z,100.00
2024-02-29T07:11:20.672Z,100.00
2024-02-29T07:14:23.746Z,100.00
2024-02-29T07:17:26.472Z,100.00
2024-02-29T07:20:29.300Z,100.00
2024-02-29T07:23:32.604Z,100.00
2024-02-29T07:26:41.374Z,100.00
2024-02-29T07:29:44.289Z,100.00
2024-02-29T07:32:46.964Z,100.00
2024-02-29T07:35:49.761Z,100.00
2024-02-29T07:38:52.420Z,100.00
2024-02-29T07:41:56.480Z,100.00
2024-02-29T07:44:59.209Z,100.00
2024-02-29T07:48:04.038Z,100.00
2024-02-29T07:51:06.977Z,100.00
2024-02-29T07:54:10.290Z,100.00
2024-02-29T07:57:14.765Z,100.00
2024-02-29T08:00:18.928Z,100.00
2024-02-29T08:03:21.573Z,100.00
2024-02-29T08:06:24.382Z,100.00
2024-02-29T08:09:27.106Z,100.00
2024-02-29T08:12:31.117Z,100.00
2024-02-29T08:15:35.105Z,100.00
2024-02-29T08:18:39.166Z,100.00
2024-02-29T08:21:41.883Z,100.00
2024-02-29T08:24:44.549Z,100.00
2024-02-29T08:27:48.576Z,100.00
2024-02-29T08:30:51.473Z,100.00
2024-02-29T08:33:54.165Z,100.00
2024-02-29T08:36:56.886Z,100.00
2024-02-29T08:39:59.576Z,100.00
2024-02-29T08:43:03.961Z,100.00
2024-02-29T08:46:06.698Z,100.00
2024-02-29T08:49:09.341Z,100.00
2024-02-29T08:52:12.137Z,100.00
2024-02-29T08:55:15.037Z,100.00
2024-02-29T08:58:19.122Z,100.00
2024-02-29T09:01:22.227Z,99.23
2024-02-29T09:04:25.401Z,100.00
2024-02-29T09:07:28.566Z,100.00
2024-02-29T09:10:31.383Z,97.22
2024-02-29T09:13:36.241Z,97.21
2024-02-29T09:16:39.513Z,100.00
2024-02-29T09:19:42.487Z,93.33
2024-02-29T09:22:45.110Z,95.60
2024-02-29T09:25:47.756Z,94.40
2024-02-29T09:28:51.736Z,93.49
2024-02-29T09:31:54.377Z,90.85
2024-02-29T09:34:57.008Z,89.97
2024-02-29T09:37:59.694Z,88.24
2024-02-29T09:41:12.631Z,80.96
2024-02-29T09:44:27.545Z,81.24
2024-02-29T09:47:33.191Z,81.87
2024-02-29T09:50:35.901Z,77.41
2024-02-29T09:53:38.981Z,79.70
2024-02-29T09:56:42.088Z,76.32
2024-02-29T09:59:46.182Z,73.21
2024-02-29T10:02:51.558Z,73.53
2024-02-29T10:05:55.714Z,76.03
2024-02-29T10:08:58.629Z,74.18
2024-02-29T10:12:03.003Z,68.94
2024-02-29T10:15:11.213Z,68.22
2024-02-29T10:18:13.963Z,66.99
2024-02-29T10:21:16.758Z,66.47
2024-02-29T10:24:20.512Z,63.41
2024-02-29T10:27:23.518Z,59.18
2024-02-29T10:30:29.535Z,59.30
2024-02-29T10:33:34.103Z,57.84
2024-02-29T10:36:36.791Z,56.06
2024-02-29T10:39:41.602Z,55.11
2024-02-29T10:42:44.466Z,51.35
2024-02-29T10:45:52.240Z,51.56
2024-02-29T10:49:01.232Z,48.63
2024-02-29T10:52:11.600Z,48.21
2024-02-29T10:55:20.290Z,46.50
2024-02-29T10:58:26.445Z,45.26
2024-02-29T11:01:30.954Z,45.44
2024-02-29T11:04:33.969Z,44.53
2024-02-29T11:07:36.803Z,42.97
2024-02-29T11:10:39.671Z,41.06
2024-02-29T11:13:43.028Z,40.44
2024-02-29T11:16:47.940Z,39.23
2024-02-29T11:19:58.605Z,39.22
2024-02-29T11:23:10.626Z,39.01
2024-02-29T11:26:14.294Z,36.92
2024-02-29T11:29:17.848Z,38.33
2024-02-29T11:32:30.198Z,36.91
2024-02-29T11:35:34.161Z,35.97
2024-02-29T11:38:40.368Z,34.28
2024-02-29T11:41:43.597Z,34.36
2024-02-29T11:44:48.316Z,34.82
2024-02-29T11:47:52.891Z,35.51
2024-02-29T11:50:55.585Z,35.28
2024-02-29T11:53:59.679Z,34.34
2024-02-29T11:57:02.575Z,35.33
2024-02-29T12:00:07.046Z,38.03
2024-02-29T12:03:11.227Z,39.73
2024-02-29T12:06:13.969Z,39.42
2024-02-29T12:09:16.846Z,37.18
2024-02-29T12:12:22.452Z,37.33
2024-02-29T12:15:25.225Z,36.62
2024-02-29T12:18:29.266Z,36.33
2024-02-29T12:21:31.946Z,36.91
2024-02-29T12:24:35.200Z,37.46
2024-02-29T12:27:37.862Z,37.92
2024-02-29T12:30:40.748Z,38.59
2024-02-29T12:33:45.566Z,40.06
2024-02-29T12:36:48.819Z,42.33
2024-02-29T12:39:55.677Z,44.06
2024-02-29T12:42:58.876Z,44.84
2024-02-29T12:46:01.734Z,44.10
2024-02-29T12:49:05.808Z,43.08
2024-02-29T12:52:08.490Z,40.99
2024-02-29T12:55:11.607Z,40.61
2024-02-29T12:58:14.401Z,38.78
2024-02-29T13:01:17.392Z,37.96
2024-02-29T13:04:21.670Z,37.29
2024-02-29T13:07:24.438Z,35.83
2024-02-29T13:10:27.455Z,33.60
2024-02-29T13:13:30.335Z,33.52
2024-02-29T13:16:33.172Z,32.45
2024-02-29T13:19:37.188Z,31.39
2024-02-29T13:22:40.730Z,31.15
2024-02-29T13:25:43.405Z,31.59
2024-02-29T13:28:47.404Z,30.63
2024-02-29T13:31:50.327Z,30.96
2024-02-29T13:34:54.324Z,32.18
2024-02-29T13:37:56.954Z,31.05
2024-02-29T13:40:59.615Z,32.02
2024-02-29T13:44:03.346Z,29.53
2024-02-29T13:47:06.617Z,30.74
2024-02-29T13:50:11.326Z,30.85
2024-02-29T13:53:14.469Z,29.79
2024-02-29T13:56:19.225Z,29.88
2024-02-29T13:59:22.265Z,30.85
2024-02-29T14:02:24.908Z,30.36
2024-02-29T14:05:28.892Z,32.25
2024-02-29T14:08:31.729Z,31.57
2024-02-29T14:11:34.598Z,33.08
2024-02-29T14:14:37.901Z,33.67
2024-02-29T14:17:41.114Z,34.58
2024-02-29T14:20:45.164Z,34.54
2024-02-29T14:23:48.081Z,35.60
2024-02-29T14:26:52.687Z,37.00
2024-02-29T14:29:55.365Z,38.21
2024-02-29T14:32:58.777Z,38.81
2024-02-29T14:36:02.926Z,38.61
2024-02-29T14:39:12.483Z,38.10
2024-02-29T14:42:15.521Z,38.53
2024-02-29T14:45:18.226Z,40.61
2024-02-29T14:48:21.129Z,40.48
2024-02-29T14:51:25.122Z,40.09
2024-02-29T14:54:27.775Z,40.56
2024-02-29T14:57:30.439Z,41.09
2024-02-29T15:00:33.066Z,42.25
2024-02-29T15:03:36.931Z,43.63
2024-02-29T15:06:41.992Z,43.27
2024-02-29T15:09:44.779Z,44.29
2024-02-29T15:12:47.458Z,44.37
2024-02-29T15:15:50.915Z,44.72
2024-02-29T15:18:53.951Z,46.13
2024-02-29T15:21:57.963Z,46.93
2024-02-29T15:25:00.830Z,46.51
2024-02-29T15:28:05.495Z,46.72
2024-02-29T15:31:08.695Z,46.17
2024-02-29T15:34:11.359Z,47.52
2024-02-29T15:37:15.553Z,45.76
2024-02-29T15:40:18.369Z,46.47
2024-02-29T15:43:21.147Z,44.04
2024-02-29T15:46:23.958Z,44.99
2024-02-29T15:49:26.707Z,45.41
2024-02-29T15:52:30.823Z,44.77
2024-02-29T15:55:33.625Z,46.85
2024-02-29T15:58:36.431Z,47.37
2024-02-29T16:01:39.142Z,48.38
2024-02-29T16:04:41.868Z,48.39
2024-02-29T16:07:45.933Z,48.20
2024-02-29T16:10:48.624Z,48.27
2024-02-29T16:13:51.415Z,47.94
2024-02-29T16:16:54.446Z,49.82
2024-02-29T16:19:57.210Z,51.16
2024-02-29T16:23:01.436Z,49.47
2024-02-29T16:26:04.511Z,51.66
2024-02-29T16:29:07.152Z,51.02
2024-02-29T16:32:11.626Z,48.76
2024-02-29T16:35:14.387Z,52.92
2024-02-29T16:38:18.569Z,53.15
2024-02-29T16:41:21.862Z,53.99
2024-02-29T16:44:27.465Z,53.60
2024-02-29T16:47:30.280Z,57.46
2024-02-29T16:50:32.950Z,58.23
2024-02-29T16:53:36.956Z,59.17
2024-02-29T16:56:40.498Z,60.15
2024-02-29T16:59:44.189Z,63.28
2024-02-29T17:02:46.864Z,65.49
2024-02-29T17:05:49.516Z,65.99
2024-02-29T17:08:53.505Z,67.89
2024-02-29T17:11:56.140Z,67.37
2024-02-29T17:14:58.762Z,70.76
2024-02-29T17:18:01.568Z,69.57
2024-02-29T17:21:04.531Z,73.78
2024-02-29T17:24:08.552Z,74.66
2024-02-29T17:27:11.236Z,77.49
2024-02-29T17:30:16.497Z,74.83
2024-02-29T17:33:19.161Z,79.49
2024-02-29T17:36:21.798Z,75.77
2024-02-29T17:39:25.894Z,78.89
2024-02-29T17:42:29.451Z,79.19
2024-02-29T17:45:32.094Z,81.17
2024-02-29T17:48:35.004Z,78.03
2024-02-29T17:51:38.276Z,79.62
2024-02-29T17:54:42.854Z,77.56
2024-02-29T17:57:46.877Z,79.90
2024-02-29T18:00:49.873Z,75.68
2024-02-29T18:03:52.596Z,79.96
2024-02-29T18:06:55.405Z,80.83
2024-02-29T18:10:01.081Z,82.48
2024-02-29T18:13:04.012Z,80.72
2024-02-29T18:16:07.200Z,82.33
2024-02-29T18:19:10.093Z,82.54
2024-02-29T18:22:12.811Z,86.57
2024-02-29T18:25:18.749Z,85.29
2024-02-29T18:28:22.145Z,86.46
2024-02-29T18:31:24.993Z,88.60
2024-02-29T18:34:27.840Z,88.69
2024-02-29T18:37:30.533Z,88.10
2024-02-29T18:40:34.592Z,92.25
2024-02-29T18:43:37.224Z,91.71
2024-02-29T18:46:40.987Z,94.37
2024-02-29T18:49:43.775Z,95.16
2024-02-29T18:52:46.410Z,93.36
2024-02-29T18:55:50.876Z,94.75
2024-02-29T18:58:54.069Z,97.04
2024-02-29T19:01:57.025Z,96.17
2024-02-29T19:04:59.775Z,96.81
2024-02-29T19:08:02.806Z,95.41
2024-02-29T19:11:07.032Z,96.33
2024-02-29T19:14:09.919Z,97.17
2024-02-29T19:17:13.246Z,97.26
2024-02-29T19:20:16.249Z,97.52
2024-02-29T19:23:18.892Z,98.97
2024-02-29T19:26:23.964Z,98.82
2024-02-29T19:29:27.485Z,99.89
2024-02-29T19:32:30.233Z,100.00
2024-02-29T19:35:34.881Z,100.00
2024-02-29T19:38:37.534Z,99.41
2024-02-29T19:41:43.806Z,100.00
2024-02-29T19:44:46.501Z,100.00
2024-02-29T19:47:50.941Z,100.00
2024-02-29T19:50:54.701Z,100.00
2024-02-29T19:53:57.340Z,100.00
2024-02-29T19:57:01.302Z,100.00
2024-02-29T20:00:07.163Z,100.00
2024-02-29T20:03:09.812Z,100.00
2024-02-29T20:06:12.486Z,100.00
2024-02-29T20:09:16.259Z,100.00
2024-02-29T20:12:20.365Z,100.00
2024-02-29T20:15:23.070Z,100.00
2024-02-29T20:18:28.179Z,100.00
2024-02-29T20:21:31.341Z,100.00
2024-02-29T20:24:34.009Z,100.00
2024-02-29T20:27:37.986Z,100.00
2024-02-29T20:30:40.715Z,100.00
2024-02-29T20:33:43.967Z,100.00
2024-02-29T20:36:47.572Z,100.00
2024-02-29T20:39:50.289Z,100.00
2024-02-29T20:42:54.360Z,100.00
2024-02-29T20:45:57.026Z,100.00
2024-02-29T20:48:59.739Z,100.00
2024-02-29T20:52:02.428Z,100.00
2024-02-29T20:55:05.791Z,100.00
2024-02-29T20:58:09.886Z,100.00
2024-02-29T21:01:12.690Z,100.00
2024-02-29T21:04:15.429Z,100.00
2024-02-29T21:07:18.529Z,100.00
2024-02-29T21:10:21.913Z,100.00
2024-02-29T21:13:27.511Z,100.00
2024-02-29T21:16:32.470Z,100.00
2024-02-29T21:19:35.292Z,100.00
2024-02-29T21:22:38.253Z,100.00
2024-02-29T21:25:40.899Z,100.00
2024-02-29T21:28:47.421Z,100.00
2024-02-29T21:31:50.043Z,100.00
2024-02-29T21:34:52.678Z,100.00
2024-02-29T21:37:55.367Z,100.00
2024-02-29T21:40:58.016Z,100.00
2024-02-29T21:44:02.007Z,100.00
2024-02-29T21:47:05.111Z,100.00
2024-02-29T21:50:09.449Z,100.00
2024-02-29T21:53:12.202Z,100.00
2024-02-29T21:56:15.086Z,100.00
2024-02-29T21:59:19.171Z,100.00
2024-02-29T22:02:22.119Z,100.00
2024-02-29T22:05:24.820Z,100.00
2024-02-29T22:08:27.484Z,100.00
2024-02-29T22:11:30.194Z,100.00
2024-02-29T22:14:34.200Z,100.00
2024-02-29T22:17:36.860Z,100.00
2024-02-29T22:20:39.572Z,100.00
2024-02-29T22:23:42.444Z,100.00
2024-02-29T22:26:45.107Z,100.00
2024-02-29T22:29:49.127Z,100.00
2024-02-29T22:32:51.770Z,100.00
2024-02-29T22:35:54.432Z,100.00
2024-02-29T22:38:57.057Z,100.00
2024-02-29T22:42:02.315Z,100.00
2024-02-29T22:45:09.902Z,100.00
2024-02-29T22:48:12.601Z,100.00
2024-02-29T22:51:15.382Z,100.00
2024-02-29T22:54:18.188Z,100.00
2024-02-29T22:57:20.829Z,100.00
2024-02-29T23:00:31.318Z,100.00
2024-02-29T23:03:34.093Z,100.00
2024-02-29T23:06:36.742Z,100.00
2024-02-29T23:09:39.588Z,100.00
2024-02-29T23:12:42.233Z,100.00
2024-02-29T23:15:46.263Z,100.00
2024-02-29T23:18:49.044Z,100.00
2024-02-29T23:21:51.719Z,100.00
2024-02-29T23:24:54.584Z,100.00
2024-02-29T23:27:57.428Z,100.00
2024-02-29T23:31:01.729Z,100.00
2024-02-29T23:34:04.846Z,100.00
2024-02-29T23:37:08.338Z,100.00
2024-02-29T23:40:11.643Z,100.00
2024-02-29T23:43:14.337Z,100.00
2024-02-29T23:46:18.382Z,100.00
2024-02-29T23:49:21.301Z,100.00
2024-02-29T23:52:24.062Z,100.00
2024-02-29T23:55:27.370Z,100.00
2024-02-29T23:58:30.541Z,100.00
